createdAt,value
2023-05-09T00:01:12.776Z,11.28
2023-05-09T00:03:39.845Z,11.20
2023-05-09T00:06:07.252Z,11.27
2023-05-09T00:08:33.738Z,11.32
2023-05-09T00:11:01.712Z,11.33
2023-05-09T00:13:28.445Z,11.40
2023-05-09T00:15:54.917Z,11.43
2023-05-09T00:18:22.144Z,11.54
2023-05-09T00:20:51.518Z,11.47
2023-05-09T00:23:18.017Z,11.52
2023-05-09T00:25:44.573Z,11.62
2023-05-09T00:28:11.225Z,11.58
2023-05-09T00:30:37.792Z,11.51
2023-05-09T00:33:04.364Z,11.27
2023-05-09T00:35:32.270Z,11.19
2023-05-09T00:37:59.441Z,11.27
2023-05-09T00:40:26.047Z,11.26
2023-05-09T00:42:52.620Z,11.41
2023-05-09T00:45:20.259Z,11.41
2023-05-09T00:47:46.832Z,11.49
2023-05-09T00:50:13.814Z,11.54
2023-05-09T00:52:40.997Z,11.46
2023-05-09T00:55:08.493Z,11.10
2023-05-09T00:57:35.084Z,11.55
2023-05-09T01:00:01.882Z,11.44
2023-05-09T01:02:28.664Z,11.34
2023-05-09T01:04:55.970Z,11.47
2023-05-09T01:07:35.142Z,11.48
2023-05-09T01:10:28.746Z,11.38
2023-05-09T01:13:05.056Z,11.30
2023-05-09T01:15:39.277Z,11.35
2023-05-09T01:18:17.712Z,11.02
2023-05-09T01:21:01.767Z,11.04
2023-05-09T01:23:49.916Z,11.16
2023-05-09T01:26:32.059Z,11.12
2023-05-09T01:29:26.889Z,11.13
2023-05-09T01:31:56.042Z,11.28
2023-05-09T01:34:26.720Z,11.25
2023-05-09T01:36:58.473Z,10.88
2023-05-09T01:39:26.901Z,11.15
2023-05-09T01:41:56.617Z,11.09
2023-05-09T01:44:25.470Z,11.12
2023-05-09T01:46:54.731Z,11.11
2023-05-09T01:49:22.671Z,11.16
2023-05-09T01:51:50.548Z,11.22
2023-05-09T01:54:18.502Z,11.11
2023-05-09T01:56:45.985Z,11.09
2023-05-09T01:59:16.096Z,11.06
2023-05-09T02:01:44.523Z,10.94
2023-05-09T02:04:12.747Z,11.11
2023-05-09T02:06:40.244Z,10.92
2023-05-09T02:09:06.989Z,11.20
2023-05-09T02:11:33.460Z,11.23
2023-05-09T02:13:59.934Z,11.22
2023-05-09T02:16:27.781Z,11.13
2023-05-09T02:18:54.205Z,11.25
2023-05-09T02:21:21.493Z,11.22
2023-05-09T02:23:48.229Z,11.28
2023-05-09T02:26:14.788Z,11.22
2023-05-09T02:28:44.119Z,11.26
2023-05-09T02:31:13.917Z,11.24
2023-05-09T02:33:42.786Z,11.22
2023-05-09T02:36:10.253Z,11.20
2023-05-09T02:38:36.940Z,11.15
2023-05-09T02:41:03.435Z,11.22
2023-05-09T02:43:29.847Z,11.21
2023-05-09T02:45:56.393Z,11.20
2023-05-09T02:48:23.240Z,11.25
2023-05-09T02:50:49.689Z,11.28
2023-05-09T02:53:16.307Z,11.45
2023-05-09T02:55:43.776Z,11.31
2023-05-09T02:58:14.531Z,11.33
2023-05-09T03:00:43.406Z,11.33
2023-05-09T03:03:11.258Z,11.24
2023-05-09T03:05:37.991Z,11.19
2023-05-09T03:08:05.060Z,11.00
2023-05-09T03:10:33.416Z,11.13
2023-05-09T03:12:59.965Z,11.16
2023-05-09T03:15:27.206Z,11.11
2023-05-09T03:17:54.092Z,11.17
2023-05-09T03:20:21.940Z,11.08
2023-05-09T03:22:49.250Z,11.03
2023-05-09T03:25:16.807Z,11.01
2023-05-09T03:27:44.383Z,11.04
2023-05-09T03:30:14.587Z,11.05
2023-05-09T03:32:42.962Z,10.98
2023-05-09T03:35:09.451Z,10.94
2023-05-09T03:37:35.956Z,10.94
2023-05-09T03:40:02.711Z,11.01
2023-05-09T03:42:32.629Z,10.92
2023-05-09T03:45:01.719Z,10.91
2023-05-09T03:47:28.914Z,10.82
2023-05-09T03:49:55.671Z,10.85
2023-05-09T03:52:23.015Z,10.85
2023-05-09T03:54:49.480Z,10.85
2023-05-09T03:57:16.288Z,10.90
2023-05-09T03:59:43.347Z,10.92
2023-05-09T04:02:11.750Z,10.93
2023-05-09T04:04:38.890Z,10.94
2023-05-09T04:07:05.555Z,10.81
2023-05-09T04:09:32.132Z,10.93
2023-05-09T04:11:58.729Z,10.95
2023-05-09T04:14:25.469Z,10.96
2023-05-09T04:16:52.352Z,11.05
2023-05-09T04:19:20.196Z,11.11
2023-05-09T04:21:46.711Z,11.09
2023-05-09T04:24:14.705Z,11.04
2023-05-09T04:26:43.805Z,11.06
2023-05-09T04:29:14.029Z,10.37
2023-05-09T04:31:41.274Z,11.06
2023-05-09T04:34:10.108Z,11.05
2023-05-09T04:36:38.086Z,10.87
2023-05-09T04:39:08.236Z,11.03
2023-05-09T04:41:35.770Z,11.06
2023-05-09T04:44:03.264Z,11.06
2023-05-09T04:46:30.644Z,11.01
2023-05-09T04:48:57.533Z,11.06
2023-05-09T04:51:24.029Z,11.04
2023-05-09T04:53:50.908Z,10.93
2023-05-09T04:56:19.444Z,11.02
2023-05-09T04:58:47.621Z,11.08
2023-05-09T05:01:16.610Z,11.20
2023-05-09T05:03:43.247Z,11.23
2023-05-09T05:06:09.790Z,11.29
2023-05-09T05:08:37.792Z,11.32
2023-05-09T05:11:04.390Z,11.32
2023-05-09T05:13:30.972Z,11.32
2023-05-09T05:16:00.324Z,11.37
2023-05-09T05:18:26.922Z,11.49
2023-05-09T05:20:53.992Z,11.49
2023-05-09T05:23:21.196Z,11.55
2023-05-09T05:25:50.078Z,11.59
2023-05-09T05:28:16.943Z,11.51
2023-05-09T05:30:43.914Z,11.66
2023-05-09T05:33:11.077Z,11.72
2023-05-09T05:35:38.319Z,11.70
2023-05-09T05:38:04.911Z,11.70
2023-05-09T05:40:31.397Z,11.74
2023-05-09T05:43:01.616Z,11.76
2023-05-09T05:45:30.216Z,11.85
2023-05-09T05:47:57.826Z,11.83
2023-05-09T05:50:24.487Z,11.87
2023-05-09T05:52:50.955Z,11.98
2023-05-09T05:55:18.759Z,11.97
2023-05-09T05:57:45.774Z,11.96
2023-05-09T06:00:15.119Z,11.99
2023-05-09T06:02:47.904Z,12.01
2023-05-09T06:05:21.815Z,12.02
2023-05-09T06:07:48.333Z,12.07
2023-05-09T06:10:17.017Z,12.06
2023-05-09T06:12:45.411Z,12.07
2023-05-09T06:15:12.486Z,12.05
2023-05-09T06:17:42.404Z,12.11
2023-05-09T06:20:09.165Z,12.18
2023-05-09T06:22:35.610Z,12.18
2023-05-09T06:25:02.234Z,12.25
2023-05-09T06:27:28.942Z,12.29
2023-05-09T06:29:55.412Z,12.36
2023-05-09T06:32:21.852Z,12.39
2023-05-09T06:34:48.370Z,12.45
2023-05-09T06:37:14.818Z,12.49
2023-05-09T06:39:41.444Z,12.56
2023-05-09T06:42:07.899Z,12.62
2023-05-09T06:44:38.108Z,12.64
2023-05-09T06:47:04.540Z,12.70
2023-05-09T06:49:31.013Z,12.67
2023-05-09T06:51:57.453Z,12.73
2023-05-09T06:54:24.008Z,12.75
2023-05-09T06:56:50.591Z,12.83
2023-05-09T06:59:17.179Z,12.86
2023-05-09T07:01:43.673Z,12.85
2023-05-09T07:04:10.896Z,12.84
2023-05-09T07:06:37.355Z,12.90
2023-05-09T07:09:04.285Z,13.00
2023-05-09T07:11:37.399Z,13.06
2023-05-09T07:14:04.186Z,13.15
2023-05-09T07:16:30.747Z,13.23
2023-05-09T07:18:57.295Z,13.29
2023-05-09T07:21:23.680Z,13.27
2023-05-09T07:23:50.080Z,13.31
2023-05-09T07:26:16.572Z,13.39
2023-05-09T07:28:43.107Z,13.53
2023-05-09T07:31:09.557Z,13.60
2023-05-09T07:33:36.124Z,13.67
2023-05-09T07:36:02.821Z,13.86
2023-05-09T07:38:29.319Z,14.07
2023-05-09T07:40:55.965Z,14.22
2023-05-09T07:43:22.420Z,14.44
2023-05-09T07:45:48.917Z,14.66
2023-05-09T07:48:15.529Z,14.93
2023-05-09T07:50:42.011Z,15.14
2023-05-09T07:53:08.423Z,15.21
2023-05-09T07:55:34.898Z,15.30
2023-05-09T07:58:01.332Z,15.41
2023-05-09T08:00:27.822Z,15.49
2023-05-09T08:02:54.434Z,15.46
2023-05-09T08:05:21.005Z,15.48
2023-05-09T08:07:47.483Z,15.54
2023-05-09T08:10:14.046Z,15.56
2023-05-09T08:12:40.591Z,15.65
2023-05-09T08:15:07.612Z,15.75
2023-05-09T08:17:34.131Z,15.91
2023-05-09T08:20:00.606Z,16.14
2023-05-09T08:22:27.133Z,16.27
2023-05-09T08:24:53.624Z,16.35
2023-05-09T08:27:20.005Z,16.41
2023-05-09T08:29:46.441Z,16.31
2023-05-09T08:32:12.992Z,16.31
2023-05-09T08:34:39.381Z,16.38
2023-05-09T08:37:05.773Z,16.49
2023-05-09T08:39:34.801Z,16.56
2023-05-09T08:42:02.256Z,16.46
2023-05-09T08:44:29.984Z,16.56
2023-05-09T08:46:59.519Z,16.60
2023-05-09T08:49:26.539Z,16.58
2023-05-09T08:51:53.229Z,16.50
2023-05-09T08:54:22.878Z,16.43
2023-05-09T08:56:50.622Z,16.33
2023-05-09T08:59:18.701Z,16.39
2023-05-09T09:01:45.592Z,16.39
2023-05-09T09:04:12.201Z,16.19
2023-05-09T09:06:40.042Z,16.53
2023-05-09T09:09:11.158Z,16.70
2023-05-09T09:11:38.882Z,16.92
2023-05-09T09:14:11.790Z,16.94
2023-05-09T09:16:38.887Z,17.19
2023-05-09T09:19:11.473Z,17.20
2023-05-09T09:21:39.293Z,17.26
2023-05-09T09:24:07.685Z,17.48
2023-05-09T09:26:34.082Z,17.54
2023-05-09T09:29:00.795Z,17.59
2023-05-09T09:31:31.480Z,17.78
2023-05-09T09:34:02.425Z,18.07
2023-05-09T09:36:32.418Z,18.09
2023-05-09T09:39:00.867Z,18.00
2023-05-09T09:41:38.134Z,18.02
2023-05-09T09:44:12.686Z,17.98
2023-05-09T09:46:48.328Z,17.93
2023-05-09T09:49:17.109Z,17.97
2023-05-09T09:51:44.476Z,17.98
2023-05-09T09:54:12.664Z,17.88
2023-05-09T09:56:49.626Z,17.90
2023-05-09T09:59:18.103Z,17.80
2023-05-09T10:02:07.548Z,17.89
2023-05-09T10:04:39.082Z,17.90
2023-05-09T10:07:07.649Z,17.82
2023-05-09T10:09:35.789Z,17.82
2023-05-09T10:12:04.681Z,17.77
2023-05-09T10:14:35.151Z,17.72
2023-05-09T10:17:04.091Z,17.71
2023-05-09T10:19:31.886Z,17.69
2023-05-09T10:22:04.912Z,17.71
2023-05-09T10:24:39.675Z,17.85
2023-05-09T10:27:10.086Z,17.96
2023-05-09T10:29:44.433Z,17.81
2023-05-09T10:32:27.486Z,17.98
2023-05-09T10:35:01.905Z,17.94
2023-05-09T10:37:28.678Z,17.73
2023-05-09T10:39:55.908Z,17.74
2023-05-09T10:42:23.736Z,17.80
2023-05-09T10:44:54.036Z,17.83
2023-05-09T10:47:21.604Z,17.77
2023-05-09T10:49:49.264Z,17.83
2023-05-09T10:52:16.774Z,17.97
2023-05-09T10:54:43.238Z,18.07
2023-05-09T10:57:09.764Z,18.19
2023-05-09T10:59:41.808Z,18.30
2023-05-09T11:02:18.932Z,18.58
2023-05-09T11:04:45.578Z,18.69
2023-05-09T11:07:27.653Z,18.68
2023-05-09T11:10:14.730Z,18.57
2023-05-09T11:12:58.679Z,18.59
2023-05-09T11:15:26.509Z,18.42
2023-05-09T11:18:13.248Z,18.35
2023-05-09T11:20:44.608Z,18.18
2023-05-09T11:23:17.174Z,18.15
2023-05-09T11:25:46.631Z,18.08
2023-05-09T11:28:28.134Z,18.06
2023-05-09T11:31:09.210Z,17.92
2023-05-09T11:33:37.234Z,17.94
2023-05-09T11:36:25.368Z,18.01
2023-05-09T11:39:06.121Z,18.06
2023-05-09T11:41:53.471Z,18.11
2023-05-09T11:44:21.145Z,18.04
2023-05-09T11:46:49.262Z,18.11
2023-05-09T11:49:16.909Z,18.13
2023-05-09T11:51:43.514Z,18.15
2023-05-09T11:54:11.941Z,18.15
2023-05-09T11:56:40.749Z,17.98
2023-05-09T11:59:07.793Z,17.93
2023-05-09T12:01:35.848Z,18.05
2023-05-09T12:04:02.742Z,18.09
2023-05-09T12:06:30.019Z,17.92
2023-05-09T12:08:59.673Z,18.14
2023-05-09T12:11:26.179Z,18.23
2023-05-09T12:13:52.929Z,18.33
2023-05-09T12:16:20.504Z,18.32
2023-05-09T12:18:52.511Z,17.77
2023-05-09T12:21:20.556Z,17.81
2023-05-09T12:23:50.653Z,17.95
2023-05-09T12:26:17.581Z,17.86
2023-05-09T12:28:44.127Z,18.08
2023-05-09T12:31:11.401Z,17.80
2023-05-09T12:33:38.913Z,17.47
2023-05-09T12:36:11.880Z,17.55
2023-05-09T12:38:39.712Z,17.17
2023-05-09T12:41:18.251Z,17.11
2023-05-09T12:43:55.701Z,17.34
2023-05-09T12:46:22.153Z,16.92
2023-05-09T12:48:49.372Z,17.47
2023-05-09T12:51:20.528Z,17.74
2023-05-09T12:53:47.384Z,17.47
2023-05-09T12:56:16.464Z,17.53
2023-05-09T12:58:51.560Z,17.48
2023-05-09T13:01:19.450Z,17.50
2023-05-09T13:03:52.270Z,16.95
2023-05-09T13:06:19.117Z,16.95
2023-05-09T13:08:57.351Z,17.41
2023-05-09T13:11:24.306Z,17.46
2023-05-09T13:13:50.778Z,17.41
2023-05-09T13:16:17.911Z,17.40
2023-05-09T13:18:44.605Z,17.42
2023-05-09T13:21:11.063Z,17.22
2023-05-09T13:23:37.547Z,16.92
2023-05-09T13:26:03.986Z,16.88
2023-05-09T13:28:30.399Z,16.90
2023-05-09T13:30:56.916Z,16.89
2023-05-09T13:33:26.249Z,16.86
2023-05-09T13:35:53.462Z,16.81
2023-05-09T13:38:19.840Z,16.93
2023-05-09T13:40:46.555Z,16.84
2023-05-09T13:43:12.956Z,16.79
2023-05-09T13:45:39.421Z,16.66
2023-05-09T13:48:06.149Z,16.58
2023-05-09T13:50:32.662Z,16.69
2023-05-09T13:52:59.233Z,16.86
2023-05-09T13:55:27.233Z,17.05
2023-05-09T13:57:53.637Z,17.12
2023-05-09T14:00:21.327Z,17.26
2023-05-09T14:02:48.252Z,17.15
2023-05-09T14:05:14.765Z,16.96
2023-05-09T14:07:41.146Z,16.89
2023-05-09T14:10:11.919Z,16.92
2023-05-09T14:12:39.637Z,16.67
2023-05-09T14:15:09.515Z,16.92
2023-05-09T14:17:36.061Z,16.83
2023-05-09T14:20:02.485Z,16.72
2023-05-09T14:22:28.981Z,16.82
2023-05-09T14:24:57.151Z,16.66
2023-05-09T14:27:23.768Z,16.92
2023-05-09T14:29:50.421Z,16.72
2023-05-09T14:32:17.355Z,16.76
2023-05-09T14:34:43.940Z,16.77
2023-05-09T14:37:13.793Z,16.25
2023-05-09T14:39:41.925Z,16.84
2023-05-09T14:42:11.230Z,16.95
2023-05-09T14:44:38.438Z,16.89
2023-05-09T14:47:05.081Z,16.98
2023-05-09T14:49:31.890Z,16.99
2023-05-09T14:51:58.419Z,17.05
2023-05-09T14:54:24.935Z,16.97
2023-05-09T14:56:51.396Z,16.96
2023-05-09T14:59:18.028Z,16.96
2023-05-09T15:01:45.564Z,16.91
2023-05-09T15:04:12.093Z,16.89
2023-05-09T15:06:38.655Z,17.09
2023-05-09T15:09:05.097Z,17.21
2023-05-09T15:11:43.290Z,17.20
2023-05-09T15:14:13.879Z,17.06
2023-05-09T15:16:40.494Z,16.99
2023-05-09T15:19:08.032Z,16.54
2023-05-09T15:21:34.992Z,16.76
2023-05-09T15:24:02.258Z,16.68
2023-05-09T15:26:29.159Z,16.73
2023-05-09T15:28:55.601Z,16.86
2023-05-09T15:31:23.246Z,16.82
2023-05-09T15:33:49.664Z,16.95
2023-05-09T15:36:16.356Z,16.97
2023-05-09T15:38:42.929Z,16.99
2023-05-09T15:41:09.444Z,17.16
2023-05-09T15:43:35.955Z,17.25
2023-05-09T15:46:02.483Z,17.22
2023-05-09T15:48:28.906Z,17.13
2023-05-09T15:50:55.609Z,17.12
2023-05-09T15:53:23.099Z,17.16
2023-05-09T15:55:49.873Z,16.88
2023-05-09T15:58:16.458Z,17.23
2023-05-09T16:00:42.950Z,17.21
2023-05-09T16:03:09.488Z,17.16
2023-05-09T16:05:35.979Z,17.22
2023-05-09T16:08:02.425Z,17.23
2023-05-09T16:10:28.890Z,17.21
2023-05-09T16:12:55.438Z,17.18
2023-05-09T16:15:21.839Z,17.13
2023-05-09T16:17:48.247Z,17.16
2023-05-09T16:20:15.178Z,17.11
2023-05-09T16:22:42.434Z,17.11
2023-05-09T16:25:09.250Z,17.13
2023-05-09T16:27:35.801Z,17.14
2023-05-09T16:30:02.897Z,17.09
2023-05-09T16:32:29.295Z,17.12
2023-05-09T16:34:55.994Z,16.98
2023-05-09T16:37:23.390Z,17.08
2023-05-09T16:39:49.980Z,16.98
2023-05-09T16:42:16.538Z,16.88
2023-05-09T16:44:42.968Z,16.67
2023-05-09T16:47:09.387Z,16.50
2023-05-09T16:49:35.912Z,16.49
2023-05-09T16:52:02.278Z,16.44
2023-05-09T16:54:31.110Z,16.39
2023-05-09T16:56:57.608Z,16.32
2023-05-09T16:59:24.009Z,16.17
2023-05-09T17:01:50.522Z,15.97
2023-05-09T17:04:17.129Z,16.04
2023-05-09T17:06:43.598Z,15.97
2023-05-09T17:09:10.012Z,15.81
2023-05-09T17:11:36.588Z,15.78
2023-05-09T17:14:03.407Z,15.64
2023-05-09T17:16:29.928Z,15.52
2023-05-09T17:18:56.514Z,15.44
2023-05-09T17:21:22.965Z,15.31
2023-05-09T17:23:49.411Z,15.35
2023-05-09T17:26:15.906Z,15.21
2023-05-09T17:28:42.302Z,15.20
2023-05-09T17:31:08.734Z,15.08
2023-05-09T17:33:35.253Z,15.11
2023-05-09T17:36:01.693Z,15.13
2023-05-09T17:38:28.288Z,15.02
2023-05-09T17:40:54.803Z,15.02
2023-05-09T17:43:22.143Z,15.02
2023-05-09T17:45:48.688Z,15.04
2023-05-09T17:48:15.822Z,15.04
2023-05-09T17:50:43.717Z,14.96
2023-05-09T17:53:10.522Z,14.97
2023-05-09T17:55:37.046Z,15.10
2023-05-09T17:58:03.484Z,15.11
2023-05-09T18:00:30.127Z,15.20
2023-05-09T18:03:00.843Z,15.17
2023-05-09T18:05:27.618Z,15.14
2023-05-09T18:07:54.162Z,15.20
2023-05-09T18:10:20.789Z,15.25
2023-05-09T18:12:47.345Z,15.21
2023-05-09T18:15:14.146Z,14.98
2023-05-09T18:17:40.607Z,14.97
2023-05-09T18:20:08.462Z,14.88
2023-05-09T18:22:34.982Z,14.89
2023-05-09T18:25:01.888Z,14.83
2023-05-09T18:27:28.307Z,14.71
2023-05-09T18:29:54.837Z,14.67
2023-05-09T18:32:21.839Z,14.66
2023-05-09T18:34:48.477Z,14.49
2023-05-09T18:37:16.446Z,14.30
2023-05-09T18:39:42.985Z,14.36
2023-05-09T18:42:09.379Z,14.43
2023-05-09T18:44:36.524Z,14.32
2023-05-09T18:47:03.008Z,14.37
2023-05-09T18:49:29.884Z,14.33
2023-05-09T18:51:56.610Z,14.31
2023-05-09T18:54:23.607Z,14.38
2023-05-09T18:56:50.278Z,14.33
2023-05-09T18:59:17.338Z,14.31
2023-05-09T19:01:44.043Z,14.20
2023-05-09T19:04:10.837Z,14.18
2023-05-09T19:06:37.494Z,14.17
2023-05-09T19:09:04.298Z,14.08
2023-05-09T19:11:30.829Z,14.15
2023-05-09T19:13:57.430Z,14.13
2023-05-09T19:16:24.817Z,14.17
2023-05-09T19:18:51.290Z,14.15
2023-05-09T19:21:18.750Z,14.18
2023-05-09T19:23:48.963Z,14.11
2023-05-09T19:26:16.483Z,14.08
2023-05-09T19:28:43.113Z,13.66
2023-05-09T19:31:09.988Z,14.08
2023-05-09T19:33:36.756Z,13.97
2023-05-09T19:36:03.509Z,13.86
2023-05-09T19:38:31.347Z,13.91
2023-05-09T19:40:59.135Z,13.88
2023-05-09T19:43:25.753Z,13.83
2023-05-09T19:45:52.176Z,13.87
2023-05-09T19:48:18.630Z,13.86
2023-05-09T19:50:45.970Z,13.69
2023-05-09T19:53:12.724Z,13.81
2023-05-09T19:55:39.308Z,13.88
2023-05-09T19:58:05.874Z,13.93
2023-05-09T20:00:32.396Z,13.86
2023-05-09T20:02:59.008Z,13.86
2023-05-09T20:05:27.225Z,13.89
2023-05-09T20:07:53.764Z,13.84
2023-05-09T20:10:20.885Z,13.75
2023-05-09T20:12:47.606Z,13.74
2023-05-09T20:15:14.091Z,13.72
2023-05-09T20:17:40.656Z,13.69
2023-05-09T20:20:07.713Z,13.68
2023-05-09T20:22:34.107Z,13.55
2023-05-09T20:25:00.562Z,13.58
2023-05-09T20:27:27.144Z,13.58
2023-05-09T20:29:53.777Z,13.56
2023-05-09T20:32:22.249Z,13.54
2023-05-09T20:34:48.709Z,13.34
2023-05-09T20:37:15.947Z,13.36
2023-05-09T20:39:42.446Z,13.41
2023-05-09T20:42:08.981Z,13.43
2023-05-09T20:44:35.429Z,13.48
2023-05-09T20:47:01.849Z,13.39
2023-05-09T20:49:28.350Z,13.40
2023-05-09T20:51:55.232Z,13.34
2023-05-09T20:54:23.872Z,13.38
2023-05-09T20:56:50.548Z,13.26
2023-05-09T20:59:17.468Z,13.11
2023-05-09T21:01:43.981Z,13.11
2023-05-09T21:04:10.415Z,13.02
2023-05-09T21:06:37.111Z,12.90
2023-05-09T21:09:05.650Z,12.92
2023-05-09T21:11:32.144Z,12.75
2023-05-09T21:13:58.631Z,12.78
2023-05-09T21:16:25.231Z,12.84
2023-05-09T21:18:51.745Z,12.81
2023-05-09T21:21:18.185Z,12.92
2023-05-09T21:23:44.623Z,12.83
2023-05-09T21:26:11.109Z,12.85
2023-05-09T21:28:37.525Z,12.84
2023-05-09T21:31:04.157Z,12.82
2023-05-09T21:33:30.947Z,12.88
2023-05-09T21:35:58.584Z,12.93
2023-05-09T21:38:25.157Z,12.87
2023-05-09T21:40:51.727Z,12.90
2023-05-09T21:43:18.319Z,12.85
2023-05-09T21:45:45.726Z,12.77
2023-05-09T21:48:12.255Z,12.88
2023-05-09T21:50:38.877Z,12.54
2023-05-09T21:53:05.455Z,12.92
2023-05-09T21:55:31.931Z,12.85
2023-05-09T21:57:58.404Z,12.85
2023-05-09T22:00:24.838Z,12.59
2023-05-09T22:02:51.453Z,12.45
2023-05-09T22:05:18.026Z,12.77
2023-05-09T22:07:44.498Z,12.76
2023-05-09T22:10:11.192Z,12.60
2023-05-09T22:12:38.052Z,12.46
2023-05-09T22:15:05.360Z,12.74
2023-05-09T22:17:31.873Z,12.74
2023-05-09T22:19:58.433Z,12.76
2023-05-09T22:22:24.879Z,12.73
2023-05-09T22:24:51.397Z,12.48
2023-05-09T22:27:18.044Z,12.73
2023-05-09T22:29:45.623Z,12.75
2023-05-09T22:32:12.357Z,12.79
2023-05-09T22:34:39.375Z,12.74
2023-05-09T22:37:06.159Z,12.70
2023-05-09T22:39:32.744Z,12.69
2023-05-09T22:41:59.195Z,12.63
2023-05-09T22:44:25.617Z,12.64
2023-05-09T22:46:52.141Z,12.64
2023-05-09T22:49:18.661Z,12.55
2023-05-09T22:51:45.061Z,12.51
2023-05-09T22:54:11.550Z,12.51
2023-05-09T22:56:37.936Z,12.50
2023-05-09T22:59:04.504Z,12.55
2023-05-09T23:01:31.258Z,12.39
2023-05-09T23:03:57.692Z,12.34
2023-05-09T23:06:24.139Z,12.50
2023-05-09T23:08:50.572Z,12.45
2023-05-09T23:11:16.980Z,12.47
2023-05-09T23:13:43.491Z,12.31
2023-05-09T23:16:10.188Z,12.27
2023-05-09T23:18:36.596Z,12.27
2023-05-09T23:21:04.539Z,12.19
2023-05-09T23:23:30.956Z,12.16
2023-05-09T23:25:57.424Z,12.10
2023-05-09T23:28:25.203Z,12.20
2023-05-09T23:30:53.483Z,12.28
2023-05-09T23:33:20.453Z,12.17
2023-05-09T23:35:47.792Z,12.18
2023-05-09T23:38:14.269Z,12.18
2023-05-09T23:40:44.247Z,12.08
2023-05-09T23:43:10.724Z,12.08
2023-05-09T23:45:37.144Z,12.15
2023-05-09T23:48:04.383Z,12.16
2023-05-09T23:50:31.196Z,12.13
2023-05-09T23:52:57.656Z,12.16
2023-05-09T23:55:24.101Z,12.08
2023-05-09T23:57:50.631Z,12.15
